Flugplatz Wiesbaden Army Airfield

Bericht für ETOU

vom 23.05. um 17:56 UTC

Wind 4 kt aus 200°

Sichtweite 10 km oder mehr

keine Wolken

Temperatur 19.1°C

Taupunkt 7.2°C

Luftfeuchtigkeit 46%

Luftdruck 1017 hPa

ETOU 231756Z AUTO 20004KT 9999 CLR 19/07 A3002 RMK AO2 SLP167 T01910072 10213 20191 57008 $

Prognose für ETOU

vom 23.05. um 17:55 UTC

Zwischen 17:00 UTC und 19:00 UTC

Wind 9 kt aus 180°

Sichtweite 10 km oder mehr

gering bewölkt in 5000 ft


Zwischen 19:00 und 20:00 UTC übergehend zu

variable Windrichtung mit 6 kt

Sichtweite 10 km oder mehr

aufgelockert bewölkt in 5000 ft


Am 24.05. zwischen 05:00 und 06:00 UTC übergehend zu

Wind 9 kt aus 200°

Sichtweite 10 km oder mehr

gering bewölkt in 5000 ft

TAF AMD ETOU 231755Z 2317/2417 18009KT 9999 FEW050 QNH3001INS BECMG 2319/2320 VRB06KT 9999 SCT050 QNH3000INS BECMG 2405/2406 20009KT 9999 FEW050 QNH2995INS TX21/2413Z TN06/2405Z LAST NO AMDS AFT 2318 NEXT 2419
Impressum